createdAt,value
2022-12-18T00:00:06.955Z,101522.06
2022-12-18T00:05:16.517Z,101511.53
2022-12-18T00:10:21.959Z,101512.53
2022-12-18T00:15:24.660Z,101529.72
2022-12-18T00:20:27.551Z,101527.28
2022-12-18T00:25:31.597Z,101520.50
2022-12-18T00:30:34.257Z,101527.38
2022-12-18T00:35:37.000Z,101519.53
2022-12-18T00:40:41.059Z,101521.91
2022-12-18T00:45:43.827Z,101521.91
2022-12-18T00:50:49.205Z,101529.00
2022-12-18T00:55:53.451Z,101519.03
2022-12-18T01:00:56.210Z,101517.81
2022-12-18T01:05:59.062Z,101518.72
2022-12-18T01:11:03.416Z,101532.78
2022-12-18T01:16:06.605Z,101530.03
2022-12-18T01:21:12.826Z,101528.66
2022-12-18T01:26:18.128Z,101526.59
2022-12-18T01:31:24.259Z,101528.50
2022-12-18T01:36:28.510Z,101512.91
2022-12-18T01:41:53.569Z,101520.97
2022-12-18T01:46:56.926Z,101522.31
2022-12-18T01:51:59.710Z,101523.75
2022-12-18T01:57:03.907Z,101531.00
2022-12-18T02:02:06.857Z,101525.50
2022-12-18T02:07:16.207Z,101519.03
2022-12-18T02:12:21.800Z,101529.97
2022-12-18T02:17:27.257Z,101543.44
2022-12-18T02:22:38.127Z,101535.97
2022-12-18T02:27:43.794Z,101530.53
2022-12-18T02:32:49.010Z,101518.06
2022-12-18T02:37:52.047Z,101506.28
2022-12-18T02:42:56.367Z,101501.84
2022-12-18T02:48:00.171Z,101509.50
2022-12-18T02:53:10.913Z,101516.38
2022-12-18T02:58:18.568Z,101503.06
2022-12-18T03:03:31.292Z,101505.72
2022-12-18T03:08:37.718Z,101516.00
2022-12-18T03:13:46.589Z,101511.56
2022-12-18T03:18:54.045Z,101514.72
2022-12-18T03:23:57.294Z,101517.34
2022-12-18T03:29:06.320Z,101532.19
2022-12-18T03:34:11.916Z,101536.69
2022-12-18T03:39:21.390Z,101542.59
2022-12-18T03:44:35.911Z,101527.66
2022-12-18T03:49:42.135Z,101529.09
2022-12-18T03:54:45.666Z,101527.88
2022-12-18T03:59:55.026Z,101521.09
2022-12-18T04:05:03.671Z,101517.81
2022-12-18T04:10:08.891Z,101519.31
2022-12-18T04:15:14.046Z,101500.94
2022-12-18T04:20:17.675Z,101522.66
2022-12-18T04:25:21.490Z,101528.09
2022-12-18T04:30:38.294Z,101520.25
2022-12-18T04:35:43.444Z,101519.53
2022-12-18T04:40:48.160Z,101517.66
2022-12-18T04:46:05.371Z,101522.69
2022-12-18T04:51:08.674Z,101527.72
2022-12-18T04:56:12.892Z,101508.31
2022-12-18T05:01:18.819Z,101490.94
2022-12-18T05:06:21.695Z,101498.50
2022-12-18T05:11:24.676Z,101485.88
2022-12-18T05:16:28.970Z,101491.69
2022-12-18T05:21:31.940Z,101491.97
2022-12-18T05:26:34.849Z,101487.50
2022-12-18T05:31:39.664Z,101497.75
2022-12-18T05:36:42.657Z,101487.50
2022-12-18T05:41:45.558Z,101470.22
2022-12-18T05:46:49.778Z,101482.00
2022-12-18T05:51:52.574Z,101487.72
2022-12-18T05:56:55.540Z,101486.78
2022-12-18T06:01:59.687Z,101489.78
2022-12-18T06:07:05.432Z,101483.13
2022-12-18T06:12:08.694Z,101482.00
2022-12-18T06:17:12.830Z,101481.22
2022-12-18T06:22:15.514Z,101482.72
2022-12-18T06:27:18.314Z,101494.88
2022-12-18T06:32:22.421Z,101499.72
2022-12-18T06:37:26.919Z,101511.25
2022-12-18T06:42:30.518Z,101511.78
2022-12-18T06:47:34.710Z,101513.75
2022-12-18T06:52:37.740Z,101514.94
2022-12-18T06:57:41.582Z,101514.84
2022-12-18T07:02:45.803Z,101510.69
2022-12-18T07:07:48.723Z,101506.28
2022-12-18T07:12:51.486Z,101488.84
2022-12-18T07:17:55.577Z,101486.34
2022-12-18T07:22:58.704Z,101472.41
2022-12-18T07:28:01.712Z,101467.28
2022-12-18T07:33:05.833Z,101467.91
2022-12-18T07:38:08.555Z,101475.41
2022-12-18T07:43:11.246Z,101467.59
2022-12-18T07:48:15.337Z,101467.84
2022-12-18T07:53:18.072Z,101460.00
2022-12-18T07:58:20.919Z,101458.28
2022-12-18T08:03:25.252Z,101442.25
2022-12-18T08:08:28.160Z,101428.19
2022-12-18T08:13:31.050Z,101419.69
2022-12-18T08:18:36.013Z,101399.75
2022-12-18T08:23:43.136Z,101396.41
2022-12-18T08:28:46.292Z,101384.00
2022-12-18T08:33:52.327Z,101374.66
2022-12-18T08:38:55.135Z,101373.88
2022-12-18T08:44:15.167Z,101353.31
2022-12-18T08:49:19.296Z,101332.94
2022-12-18T08:54:22.000Z,101317.94
2022-12-18T08:59:25.123Z,101294.53
2022-12-18T09:04:29.251Z,101280.97
2022-12-18T09:09:32.003Z,101290.69
2022-12-18T09:14:34.719Z,101274.75
2022-12-18T09:19:38.830Z,101259.34
2022-12-18T09:24:41.580Z,101251.94
2022-12-18T09:29:48.150Z,101244.59
2022-12-18T09:34:52.261Z,101224.75
2022-12-18T09:39:54.984Z,101223.28
2022-12-18T09:44:57.981Z,101203.69
2022-12-18T09:50:06.347Z,101202.06
2022-12-18T09:55:16.532Z,101183.41
2022-12-18T10:00:22.062Z,101187.66
2022-12-18T10:05:33.060Z,101184.84
2022-12-18T10:10:40.600Z,101161.50
2022-12-18T10:15:52.901Z,101132.44
2022-12-18T10:21:00.929Z,101084.47
2022-12-18T10:26:05.764Z,101052.38
2022-12-18T10:31:09.468Z,101042.81
2022-12-18T10:36:13.718Z,101044.09
2022-12-18T10:41:27.706Z,101038.94
2022-12-18T10:46:32.350Z,101007.34
2022-12-18T10:51:38.550Z,100963.00
2022-12-18T10:56:41.336Z,100961.63
2022-12-18T11:01:51.233Z,100977.56
2022-12-18T11:07:00.205Z,100964.31
2022-12-18T11:12:06.970Z,100885.06
2022-12-18T11:17:27.693Z,100878.94
2022-12-18T11:22:33.336Z,100880.72
2022-12-18T11:27:36.030Z,100947.81
2022-12-18T11:32:39.936Z,100972.34
2022-12-18T11:37:45.684Z,100962.13
2022-12-18T11:42:54.119Z,100963.69
2022-12-18T11:48:08.357Z,100943.84
2022-12-18T11:53:14.448Z,100943.97
2022-12-18T11:58:31.086Z,100929.28
2022-12-18T12:03:51.417Z,100935.19
2022-12-18T12:09:05.966Z,100921.97
2022-12-18T12:14:21.506Z,100929.72
2022-12-18T12:19:34.611Z,100935.19
2022-12-18T12:24:49.148Z,100933.38
2022-12-18T12:30:01.935Z,100942.81
2022-12-18T12:35:17.704Z,100956.47
2022-12-18T12:40:50.206Z,100974.06
2022-12-18T12:45:48.587Z,100976.81
2022-12-18T12:50:52.114Z,100990.06
2022-12-18T12:55:57.068Z,100981.38
2022-12-18T13:01:10.540Z,100967.09
2022-12-18T13:06:19.150Z,100974.25
2022-12-18T13:11:59.965Z,100980.91
2022-12-18T13:17:32.972Z,101001.44
2022-12-18T13:22:37.791Z,101023.34
2022-12-18T13:28:02.151Z,101039.75
2022-12-18T13:34:24.473Z,101053.91
2022-12-18T13:39:34.092Z,101073.19
2022-12-18T13:44:41.537Z,101091.16
2022-12-18T13:49:46.112Z,101107.75
2022-12-18T13:54:52.415Z,101124.91
2022-12-18T13:59:57.781Z,101127.19
2022-12-18T14:05:00.510Z,101145.88
2022-12-18T14:10:12.678Z,101157.75
2022-12-18T14:15:34.220Z,101191.50
2022-12-18T14:20:37.772Z,101216.44
2022-12-18T14:25:40.513Z,101218.41
2022-12-18T14:30:45.996Z,101238.63
2022-12-18T14:35:56.545Z,101251.84
2022-12-18T14:41:00.402Z,101264.94
2022-12-18T14:46:05.959Z,101274.06
2022-12-18T14:51:09.096Z,101279.69
2022-12-18T14:56:18.443Z,101287.44
2022-12-18T15:01:25.444Z,101288.50
2022-12-18T15:06:34.168Z,101289.13
2022-12-18T15:11:45.816Z,101303.56
2022-12-18T15:16:54.324Z,101307.97
2022-12-18T15:22:01.471Z,101307.06
2022-12-18T15:27:24.463Z,101301.44
2022-12-18T15:32:28.700Z,101299.72
2022-12-18T15:37:31.419Z,101294.84
2022-12-18T15:42:52.003Z,101296.38
2022-12-18T15:47:56.267Z,101283.66
2022-12-18T15:52:59.088Z,101285.44
2022-12-18T15:58:01.871Z,101264.19
2022-12-18T16:03:06.896Z,101264.94
2022-12-18T16:08:09.769Z,101261.16
2022-12-18T16:13:13.065Z,101263.63
2022-12-18T16:18:17.194Z,101257.53
2022-12-18T16:23:19.993Z,101256.47
2022-12-18T16:28:22.932Z,101250.38
2022-12-18T16:33:26.973Z,101253.44
2022-12-18T16:38:30.656Z,101245.41
2022-12-18T16:43:33.408Z,101242.03
2022-12-18T16:48:37.517Z,101231.09
2022-12-18T16:53:40.577Z,101235.66
2022-12-18T16:58:44.682Z,101244.44
2022-12-18T17:03:54.954Z,101247.03
2022-12-18T17:08:58.526Z,101250.38
2022-12-18T17:14:07.803Z,101253.56
2022-12-18T17:19:17.019Z,101242.47
2022-12-18T17:24:20.844Z,101245.19
2022-12-18T17:29:23.586Z,101241.06
2022-12-18T17:34:29.755Z,101236.09
2022-12-18T17:39:33.460Z,101238.19
2022-12-18T17:44:37.458Z,101226.66
2022-12-18T17:49:41.900Z,101238.94
2022-12-18T17:54:44.610Z,101244.88
2022-12-18T17:59:47.750Z,101247.47
2022-12-18T18:04:51.825Z,101244.72
2022-12-18T18:09:54.578Z,101245.63
2022-12-18T18:14:57.409Z,101248.38
2022-12-18T18:20:01.596Z,101251.72
2022-12-18T18:25:05.035Z,101244.72
2022-12-18T18:30:09.652Z,101249.91
2022-12-18T18:35:30.937Z,101235.75
2022-12-18T18:40:37.162Z,101235.59
2022-12-18T18:45:40.050Z,101246.50
2022-12-18T18:50:46.020Z,101232.66
2022-12-18T18:56:04.062Z,101232.81
2022-12-18T19:01:13.710Z,101231.91
2022-12-18T19:06:19.865Z,101236.78
2022-12-18T19:11:41.456Z,101237.69
2022-12-18T19:16:45.482Z,101254.41
2022-12-18T19:21:50.185Z,101251.97
2022-12-18T19:26:56.755Z,101261.88
2022-12-18T19:32:01.253Z,101275.53
2022-12-18T19:37:05.409Z,101278.13
2022-12-18T19:42:08.306Z,101283.59
2022-12-18T19:47:11.012Z,101296.38
2022-12-18T19:52:16.133Z,101285.63
2022-12-18T19:57:18.913Z,101269.78
2022-12-18T20:02:22.048Z,101276.03
2022-12-18T20:07:26.897Z,101269.19
2022-12-18T20:12:29.750Z,101279.25
2022-12-18T20:17:32.735Z,101265.69
2022-12-18T20:22:37.633Z,101269.63
2022-12-18T20:27:40.401Z,101274.19
2022-12-18T20:32:43.194Z,101269.00
2022-12-18T20:37:48.826Z,101290.13
2022-12-18T20:42:53.657Z,101273.28
2022-12-18T20:47:59.352Z,101285.13
2022-12-18T20:53:03.332Z,101260.34
2022-12-18T20:58:06.165Z,101246.66
2022-12-18T21:03:09.102Z,101262.34
2022-12-18T21:08:13.530Z,101255.03
2022-12-18T21:13:18.092Z,101245.59
2022-12-18T21:18:21.414Z,101252.78
2022-12-18T21:23:25.772Z,101246.25
2022-12-18T21:28:28.660Z,101253.38
2022-12-18T21:33:31.807Z,101254.31
2022-12-18T21:38:35.988Z,101249.59
2022-12-18T21:43:56.604Z,101257.53
2022-12-18T21:48:59.344Z,101258.00
2022-12-18T21:54:03.948Z,101260.44
2022-12-18T21:59:06.716Z,101253.00
2022-12-18T22:04:09.723Z,101243.84
2022-12-18T22:09:16.150Z,101237.78
2022-12-18T22:14:19.090Z,101228.97
2022-12-18T22:19:21.885Z,101223.47
2022-12-18T22:24:29.124Z,101216.94
2022-12-18T22:29:49.482Z,101202.38
2022-12-18T22:34:52.267Z,101186.38
2022-12-18T22:39:56.514Z,101180.59
2022-12-18T22:45:00.335Z,101166.44
2022-12-18T22:50:03.288Z,101164.75
2022-12-18T22:55:08.802Z,101150.34
2022-12-18T23:00:13.015Z,101152.31
2022-12-18T23:05:15.758Z,101141.03
2022-12-18T23:10:19.891Z,101139.94
2022-12-18T23:15:23.560Z,101126.09
2022-12-18T23:20:31.178Z,101125.34
2022-12-18T23:25:35.282Z,101112.13
2022-12-18T23:30:38.044Z,101101.44
2022-12-18T23:35:40.739Z,101098.69
2022-12-18T23:40:44.855Z,101083.78
2022-12-18T23:45:55.483Z,101075.84
2022-12-18T23:50:58.562Z,101071.00
2022-12-18T23:56:03.263Z,101053.31
